sensor_id;sensor_type;location;lat;lon;timestamp;P1;durP1;ratioP1;P2;durP2;ratioP2
59504;SDS011;45321;53.200;5.814;2023-12-04T00:00:36;38.67;;;25.70;;
59504;SDS011;45321;53.200;5.814;2023-12-04T00:03:01;40.72;;;23.98;;
59504;SDS011;45321;53.200;5.814;2023-12-04T00:05:27;36.28;;;24.00;;
59504;SDS011;45321;53.200;5.814;2023-12-04T00:07:53;38.80;;;26.02;;
59504;SDS011;45321;53.200;5.814;2023-12-04T00:10:18;37.67;;;24.48;;
59504;SDS011;45321;53.200;5.814;2023-12-04T00:12:44;37.88;;;25.15;;
59504;SDS011;45321;53.200;5.814;2023-12-04T00:15:10;38.08;;;24.90;;
59504;SDS011;45321;53.200;5.814;2023-12-04T00:17:36;36.47;;;23.90;;
59504;SDS011;45321;53.200;5.814;2023-12-04T00:20:07;38.90;;;24.90;;
59504;SDS011;45321;53.200;5.814;2023-12-04T00:22:37;35.63;;;24.15;;
59504;SDS011;45321;53.200;5.814;2023-12-04T00:25:04;36.97;;;24.80;;
59504;SDS011;45321;53.200;5.814;2023-12-04T00:27:31;39.03;;;25.63;;
59504;SDS011;45321;53.200;5.814;2023-12-04T00:29:56;40.45;;;25.40;;
59504;SDS011;45321;53.200;5.814;2023-12-04T00:32:23;41.40;;;26.15;;
59504;SDS011;45321;53.200;5.814;2023-12-04T00:34:49;37.15;;;25.40;;
59504;SDS011;45321;53.200;5.814;2023-12-04T00:37:14;38.28;;;24.00;;
59504;SDS011;45321;53.200;5.814;2023-12-04T00:39:40;40.13;;;24.42;;
59504;SDS011;45321;53.200;5.814;2023-12-04T00:42:06;39.42;;;24.73;;
59504;SDS011;45321;53.200;5.814;2023-12-04T00:44:31;38.03;;;24.15;;
59504;SDS011;45321;53.200;5.814;2023-12-04T00:46:57;41.47;;;26.55;;
59504;SDS011;45321;53.200;5.814;2023-12-04T00:49:23;34.25;;;23.90;;
59504;SDS011;45321;53.200;5.814;2023-12-04T00:51:49;36.22;;;23.83;;
59504;SDS011;45321;53.200;5.814;2023-12-04T00:54:15;37.13;;;24.27;;
59504;SDS011;45321;53.200;5.814;2023-12-04T00:56:41;39.67;;;25.20;;
59504;SDS011;45321;53.200;5.814;2023-12-04T00:59:08;34.45;;;24.08;;
59504;SDS011;45321;53.200;5.814;2023-12-04T01:01:35;36.38;;;24.17;;
59504;SDS011;45321;53.200;5.814;2023-12-04T01:04:01;35.80;;;24.52;;
59504;SDS011;45321;53.200;5.814;2023-12-04T01:06:27;32.70;;;23.10;;
59504;SDS011;45321;53.200;5.814;2023-12-04T01:08:54;32.78;;;21.75;;
59504;SDS011;45321;53.200;5.814;2023-12-04T01:11:20;34.42;;;23.45;;
59504;SDS011;45321;53.200;5.814;2023-12-04T01:13:46;32.13;;;22.90;;
59504;SDS011;45321;53.200;5.814;2023-12-04T01:16:13;35.47;;;23.02;;
59504;SDS011;45321;53.200;5.814;2023-12-04T01:18:39;33.47;;;22.83;;
59504;SDS011;45321;53.200;5.814;2023-12-04T01:21:06;32.50;;;22.50;;
59504;SDS011;45321;53.200;5.814;2023-12-04T01:23:33;31.77;;;22.50;;
59504;SDS011;45321;53.200;5.814;2023-12-04T01:26:03;31.50;;;23.25;;
59504;SDS011;45321;53.200;5.814;2023-12-04T01:28:29;34.28;;;23.50;;
59504;SDS011;45321;53.200;5.814;2023-12-04T01:30:55;31.55;;;22.60;;
59504;SDS011;45321;53.200;5.814;2023-12-04T01:33:21;30.10;;;22.33;;
59504;SDS011;45321;53.200;5.814;2023-12-04T01:35:46;35.35;;;23.05;;
59504;SDS011;45321;53.200;5.814;2023-12-04T01:38:12;33.47;;;23.10;;
59504;SDS011;45321;53.200;5.814;2023-12-04T01:40:38;35.67;;;23.25;;
59504;SDS011;45321;53.200;5.814;2023-12-04T01:43:03;33.67;;;23.02;;
59504;SDS011;45321;53.200;5.814;2023-12-04T01:45:30;34.22;;;23.48;;
59504;SDS011;45321;53.200;5.814;2023-12-04T01:47:56;33.72;;;23.58;;
59504;SDS011;45321;53.200;5.814;2023-12-04T01:50:22;33.22;;;22.30;;
59504;SDS011;45321;53.200;5.814;2023-12-04T01:52:49;34.28;;;23.42;;
59504;SDS011;45321;53.200;5.814;2023-12-04T01:55:16;33.63;;;23.55;;
59504;SDS011;45321;53.200;5.814;2023-12-04T01:57:42;31.92;;;23.10;;
59504;SDS011;45321;53.200;5.814;2023-12-04T02:00:09;34.30;;;24.38;;
59504;SDS011;45321;53.200;5.814;2023-12-04T02:02:37;37.50;;;24.27;;
59504;SDS011;45321;53.200;5.814;2023-12-04T02:05:09;33.05;;;23.55;;
59504;SDS011;45321;53.200;5.814;2023-12-04T02:07:36;35.65;;;23.58;;
59504;SDS011;45321;53.200;5.814;2023-12-04T02:10:02;37.08;;;25.17;;
59504;SDS011;45321;53.200;5.814;2023-12-04T02:12:29;35.05;;;24.10;;
59504;SDS011;45321;53.200;5.814;2023-12-04T02:14:55;40.05;;;25.30;;
59504;SDS011;45321;53.200;5.814;2023-12-04T02:17:22;33.58;;;23.40;;
59504;SDS011;45321;53.200;5.814;2023-12-04T02:19:48;39.90;;;25.17;;
59504;SDS011;45321;53.200;5.814;2023-12-04T02:22:14;58.72;;;27.15;;
59504;SDS011;45321;53.200;5.814;2023-12-04T02:24:42;39.45;;;25.77;;
59504;SDS011;45321;53.200;5.814;2023-12-04T02:27:50;37.65;;;25.08;;
59504;SDS011;45321;53.200;5.814;2023-12-04T02:30:02;38.70;;;24.83;;
59504;SDS011;45321;53.200;5.814;2023-12-04T02:32:37;39.63;;;25.67;;
59504;SDS011;45321;53.200;5.814;2023-12-04T02:35:07;38.60;;;26.23;;
59504;SDS011;45321;53.200;5.814;2023-12-04T02:37:34;41.42;;;25.15;;
59504;SDS011;45321;53.200;5.814;2023-12-04T02:40:00;39.03;;;24.60;;
59504;SDS011;45321;53.200;5.814;2023-12-04T02:42:27;37.00;;;25.80;;
59504;SDS011;45321;53.200;5.814;2023-12-04T02:44:53;42.47;;;25.92;;
59504;SDS011;45321;53.200;5.814;2023-12-04T02:47:18;37.58;;;24.88;;
59504;SDS011;45321;53.200;5.814;2023-12-04T02:49:44;41.40;;;25.27;;
59504;SDS011;45321;53.200;5.814;2023-12-04T02:52:10;41.17;;;26.02;;
59504;SDS011;45321;53.200;5.814;2023-12-04T02:54:36;35.53;;;24.75;;
59504;SDS011;45321;53.200;5.814;2023-12-04T02:57:02;39.35;;;25.80;;
59504;SDS011;45321;53.200;5.814;2023-12-04T02:59:27;43.58;;;26.85;;
59504;SDS011;45321;53.200;5.814;2023-12-04T03:01:53;42.15;;;26.45;;
59504;SDS011;45321;53.200;5.814;2023-12-04T03:04:19;40.33;;;26.17;;
59504;SDS011;45321;53.200;5.814;2023-12-04T03:06:45;40.72;;;25.17;;
59504;SDS011;45321;53.200;5.814;2023-12-04T03:09:10;44.80;;;27.65;;
59504;SDS011;45321;53.200;5.814;2023-12-04T03:11:39;38.78;;;24.85;;
59504;SDS011;45321;53.200;5.814;2023-12-04T03:14:06;42.50;;;27.23;;
59504;SDS011;45321;53.200;5.814;2023-12-04T03:16:32;42.75;;;27.05;;
59504;SDS011;45321;53.200;5.814;2023-12-04T03:18:57;43.30;;;26.05;;
59504;SDS011;45321;53.200;5.814;2023-12-04T03:21:23;44.35;;;26.38;;
59504;SDS011;45321;53.200;5.814;2023-12-04T03:23:49;48.05;;;27.08;;
59504;SDS011;45321;53.200;5.814;2023-12-04T03:26:15;42.70;;;26.60;;
59504;SDS011;45321;53.200;5.814;2023-12-04T03:28:40;39.95;;;26.33;;
59504;SDS011;45321;53.200;5.814;2023-12-04T03:31:06;40.63;;;25.67;;
59504;SDS011;45321;53.200;5.814;2023-12-04T03:33:32;46.40;;;27.33;;
59504;SDS011;45321;53.200;5.814;2023-12-04T03:35:58;43.42;;;26.00;;
59504;SDS011;45321;53.200;5.814;2023-12-04T03:38:24;42.28;;;26.13;;
59504;SDS011;45321;53.200;5.814;2023-12-04T03:40:50;45.88;;;26.88;;
59504;SDS011;45321;53.200;5.814;2023-12-04T03:43:16;43.78;;;26.55;;
59504;SDS011;45321;53.200;5.814;2023-12-04T03:45:41;43.33;;;24.90;;
59504;SDS011;45321;53.200;5.814;2023-12-04T03:48:07;42.72;;;26.00;;
59504;SDS011;45321;53.200;5.814;2023-12-04T03:50:33;39.88;;;24.38;;
59504;SDS011;45321;53.200;5.814;2023-12-04T03:52:59;40.42;;;24.95;;
59504;SDS011;45321;53.200;5.814;2023-12-04T03:55:24;42.60;;;24.15;;
59504;SDS011;45321;53.200;5.814;2023-12-04T03:57:52;39.97;;;24.75;;
59504;SDS011;45321;53.200;5.814;2023-12-04T04:00:18;43.25;;;23.77;;
59504;SDS011;45321;53.200;5.814;2023-12-04T04:02:44;40.63;;;23.05;;
59504;SDS011;45321;53.200;5.814;2023-12-04T04:05:11;39.50;;;22.83;;
59504;SDS011;45321;53.200;5.814;2023-12-04T04:07:36;35.83;;;21.98;;
59504;SDS011;45321;53.200;5.814;2023-12-04T04:10:02;41.83;;;24.48;;
59504;SDS011;45321;53.200;5.814;2023-12-04T04:12:29;40.67;;;23.90;;
59504;SDS011;45321;53.200;5.814;2023-12-04T04:14:56;40.95;;;24.45;;
59504;SDS011;45321;53.200;5.814;2023-12-04T04:17:22;36.55;;;22.38;;
59504;SDS011;45321;53.200;5.814;2023-12-04T04:19:50;39.78;;;23.88;;
59504;SDS011;45321;53.200;5.814;2023-12-04T04:22:16;35.28;;;21.55;;
59504;SDS011;45321;53.200;5.814;2023-12-04T04:24:42;39.33;;;23.23;;
59504;SDS011;45321;53.200;5.814;2023-12-04T04:27:08;39.92;;;23.13;;
59504;SDS011;45321;53.200;5.814;2023-12-04T04:29:34;34.65;;;21.55;;
59504;SDS011;45321;53.200;5.814;2023-12-04T04:32:00;38.90;;;22.80;;
59504;SDS011;45321;53.200;5.814;2023-12-04T04:34:25;37.33;;;23.08;;
59504;SDS011;45321;53.200;5.814;2023-12-04T04:36:51;33.38;;;21.67;;
59504;SDS011;45321;53.200;5.814;2023-12-04T04:39:17;35.45;;;21.23;;
59504;SDS011;45321;53.200;5.814;2023-12-04T04:41:43;34.03;;;20.88;;
59504;SDS011;45321;53.200;5.814;2023-12-04T04:44:09;37.80;;;21.90;;
59504;SDS011;45321;53.200;5.814;2023-12-04T04:46:35;37.17;;;21.67;;
59504;SDS011;45321;53.200;5.814;2023-12-04T04:49:01;31.77;;;19.83;;
59504;SDS011;45321;53.200;5.814;2023-12-04T04:51:27;34.40;;;20.48;;
59504;SDS011;45321;53.200;5.814;2023-12-04T04:53:54;33.63;;;20.40;;
59504;SDS011;45321;53.200;5.814;2023-12-04T04:56:20;33.92;;;20.98;;
59504;SDS011;45321;53.200;5.814;2023-12-04T04:58:46;35.85;;;21.45;;
59504;SDS011;45321;53.200;5.814;2023-12-04T05:01:12;37.65;;;20.48;;
59504;SDS011;45321;53.200;5.814;2023-12-04T05:03:37;33.97;;;20.33;;
59504;SDS011;45321;53.200;5.814;2023-12-04T05:06:03;34.38;;;20.10;;
59504;SDS011;45321;53.200;5.814;2023-12-04T05:08:29;31.90;;;19.42;;
59504;SDS011;45321;53.200;5.814;2023-12-04T05:10:55;34.10;;;20.15;;
59504;SDS011;45321;53.200;5.814;2023-12-04T05:13:20;33.05;;;18.60;;
59504;SDS011;45321;53.200;5.814;2023-12-04T05:15:46;33.92;;;20.27;;
59504;SDS011;45321;53.200;5.814;2023-12-04T05:18:12;31.25;;;19.75;;
59504;SDS011;45321;53.200;5.814;2023-12-04T05:20:37;30.33;;;19.65;;
59504;SDS011;45321;53.200;5.814;2023-12-04T05:23:03;31.75;;;19.42;;
59504;SDS011;45321;53.200;5.814;2023-12-04T05:25:29;29.70;;;18.92;;
59504;SDS011;45321;53.200;5.814;2023-12-04T05:27:54;28.38;;;17.45;;
59504;SDS011;45321;53.200;5.814;2023-12-04T05:30:20;33.00;;;18.67;;
59504;SDS011;45321;53.200;5.814;2023-12-04T05:32:46;28.30;;;17.13;;
59504;SDS011;45321;53.200;5.814;2023-12-04T05:35:11;31.20;;;19.23;;
59504;SDS011;45321;53.200;5.814;2023-12-04T05:37:37;29.90;;;18.35;;
59504;SDS011;45321;53.200;5.814;2023-12-04T05:40:03;27.35;;;17.52;;
59504;SDS011;45321;53.200;5.814;2023-12-04T05:42:30;28.23;;;17.67;;
59504;SDS011;45321;53.200;5.814;2023-12-04T05:44:55;30.38;;;17.55;;
59504;SDS011;45321;53.200;5.814;2023-12-04T05:47:22;28.02;;;17.95;;
59504;SDS011;45321;53.200;5.814;2023-12-04T05:49:48;29.63;;;18.17;;
59504;SDS011;45321;53.200;5.814;2023-12-04T05:52:13;27.13;;;17.80;;
59504;SDS011;45321;53.200;5.814;2023-12-04T05:54:39;27.88;;;17.88;;
59504;SDS011;45321;53.200;5.814;2023-12-04T05:57:05;29.80;;;18.38;;
59504;SDS011;45321;53.200;5.814;2023-12-04T05:59:30;30.63;;;18.38;;
59504;SDS011;45321;53.200;5.814;2023-12-04T06:01:56;28.58;;;17.95;;
59504;SDS011;45321;53.200;5.814;2023-12-04T06:04:22;29.25;;;17.52;;
59504;SDS011;45321;53.200;5.814;2023-12-04T06:06:47;29.33;;;17.48;;
59504;SDS011;45321;53.200;5.814;2023-12-04T06:09:13;27.05;;;17.30;;
59504;SDS011;45321;53.200;5.814;2023-12-04T06:11:41;28.23;;;17.30;;
59504;SDS011;45321;53.200;5.814;2023-12-04T06:14:07;28.75;;;17.45;;
59504;SDS011;45321;53.200;5.814;2023-12-04T06:16:33;28.92;;;17.40;;
59504;SDS011;45321;53.200;5.814;2023-12-04T06:18:59;26.98;;;17.00;;
59504;SDS011;45321;53.200;5.814;2023-12-04T06:21:24;25.60;;;15.65;;
59504;SDS011;45321;53.200;5.814;2023-12-04T06:23:50;26.52;;;16.58;;
59504;SDS011;45321;53.200;5.814;2023-12-04T06:26:16;27.45;;;17.45;;
59504;SDS011;45321;53.200;5.814;2023-12-04T06:28:43;25.10;;;15.02;;
59504;SDS011;45321;53.200;5.814;2023-12-04T06:31:10;26.13;;;16.85;;
59504;SDS011;45321;53.200;5.814;2023-12-04T06:33:36;22.98;;;16.15;;
59504;SDS011;45321;53.200;5.814;2023-12-04T06:36:02;28.60;;;17.23;;
59504;SDS011;45321;53.200;5.814;2023-12-04T06:38:30;26.92;;;16.77;;
59504;SDS011;45321;53.200;5.814;2023-12-04T06:40:58;24.67;;;15.95;;
59504;SDS011;45321;53.200;5.814;2023-12-04T06:43:24;26.90;;;16.88;;
59504;SDS011;45321;53.200;5.814;2023-12-04T06:45:50;25.80;;;16.80;;
59504;SDS011;45321;53.200;5.814;2023-12-04T06:48:16;24.88;;;16.60;;
59504;SDS011;45321;53.200;5.814;2023-12-04T06:50:42;27.30;;;17.42;;
59504;SDS011;45321;53.200;5.814;2023-12-04T06:53:08;22.88;;;14.93;;
59504;SDS011;45321;53.200;5.814;2023-12-04T06:55:34;24.70;;;15.75;;
59504;SDS011;45321;53.200;5.814;2023-12-04T06:58:00;27.48;;;15.95;;
59504;SDS011;45321;53.200;5.814;2023-12-04T07:00:25;27.25;;;16.58;;
59504;SDS011;45321;53.200;5.814;2023-12-04T07:02:51;27.42;;;17.15;;
59504;SDS011;45321;53.200;5.814;2023-12-04T07:05:18;28.73;;;17.70;;
59504;SDS011;45321;53.200;5.814;2023-12-04T07:07:44;26.40;;;17.30;;
59504;SDS011;45321;53.200;5.814;2023-12-04T07:10:10;26.25;;;17.77;;
59504;SDS011;45321;53.200;5.814;2023-12-04T07:12:40;30.00;;;20.73;;
59504;SDS011;45321;53.200;5.814;2023-12-04T07:15:07;29.13;;;18.23;;
59504;SDS011;45321;53.200;5.814;2023-12-04T07:17:34;24.13;;;16.35;;
59504;SDS011;45321;53.200;5.814;2023-12-04T07:20:01;25.15;;;16.77;;
59504;SDS011;45321;53.200;5.814;2023-12-04T07:22:27;24.33;;;15.90;;
59504;SDS011;45321;53.200;5.814;2023-12-04T07:24:53;24.15;;;15.82;;
59504;SDS011;45321;53.200;5.814;2023-12-04T07:27:18;25.45;;;14.65;;
59504;SDS011;45321;53.200;5.814;2023-12-04T07:29:44;25.25;;;15.93;;
59504;SDS011;45321;53.200;5.814;2023-12-04T07:32:10;27.40;;;16.25;;
59504;SDS011;45321;53.200;5.814;2023-12-04T07:34:36;24.63;;;16.02;;
59504;SDS011;45321;53.200;5.814;2023-12-04T07:37:02;22.80;;;15.30;;
59504;SDS011;45321;53.200;5.814;2023-12-04T07:39:28;22.92;;;14.90;;
59504;SDS011;45321;53.200;5.814;2023-12-04T07:41:54;23.25;;;14.70;;
59504;SDS011;45321;53.200;5.814;2023-12-04T07:44:20;22.50;;;14.05;;
59504;SDS011;45321;53.200;5.814;2023-12-04T07:46:45;21.90;;;14.82;;
59504;SDS011;45321;53.200;5.814;2023-12-04T07:49:11;23.25;;;14.73;;
59504;SDS011;45321;53.200;5.814;2023-12-04T07:51:37;22.83;;;14.82;;
59504;SDS011;45321;53.200;5.814;2023-12-04T07:54:04;22.05;;;14.93;;
59504;SDS011;45321;53.200;5.814;2023-12-04T07:56:30;20.45;;;14.00;;
59504;SDS011;45321;53.200;5.814;2023-12-04T07:58:55;24.85;;;14.85;;
59504;SDS011;45321;53.200;5.814;2023-12-04T08:01:22;23.38;;;13.95;;
59504;SDS011;45321;53.200;5.814;2023-12-04T08:03:49;20.30;;;14.20;;
59504;SDS011;45321;53.200;5.814;2023-12-04T08:06:14;21.50;;;14.02;;
59504;SDS011;45321;53.200;5.814;2023-12-04T08:08:43;22.77;;;14.25;;
59504;SDS011;45321;53.200;5.814;2023-12-04T08:11:12;22.05;;;14.60;;
59504;SDS011;45321;53.200;5.814;2023-12-04T08:13:38;19.92;;;13.05;;
59504;SDS011;45321;53.200;5.814;2023-12-04T08:16:04;19.58;;;13.90;;
59504;SDS011;45321;53.200;5.814;2023-12-04T08:18:30;18.85;;;13.18;;
59504;SDS011;45321;53.200;5.814;2023-12-04T08:20:55;20.05;;;12.25;;
59504;SDS011;45321;53.200;5.814;2023-12-04T08:23:24;18.85;;;13.25;;
59504;SDS011;45321;53.200;5.814;2023-12-04T08:25:50;19.15;;;12.95;;
59504;SDS011;45321;53.200;5.814;2023-12-04T08:28:16;21.30;;;12.15;;
59504;SDS011;45321;53.200;5.814;2023-12-04T08:30:41;17.20;;;11.35;;
59504;SDS011;45321;53.200;5.814;2023-12-04T08:33:07;18.02;;;11.98;;
59504;SDS011;45321;53.200;5.814;2023-12-04T08:35:33;20.15;;;12.68;;
59504;SDS011;45321;53.200;5.814;2023-12-04T08:37:58;16.63;;;12.00;;
59504;SDS011;45321;53.200;5.814;2023-12-04T08:40:24;17.20;;;12.27;;
59504;SDS011;45321;53.200;5.814;2023-12-04T08:42:50;17.85;;;12.35;;
59504;SDS011;45321;53.200;5.814;2023-12-04T08:45:15;17.27;;;11.57;;
59504;SDS011;45321;53.200;5.814;2023-12-04T08:47:41;17.85;;;11.63;;
59504;SDS011;45321;53.200;5.814;2023-12-04T08:50:07;18.98;;;10.93;;
59504;SDS011;45321;53.200;5.814;2023-12-04T08:52:33;15.68;;;11.52;;
59504;SDS011;45321;53.200;5.814;2023-12-04T08:54:59;18.02;;;11.35;;
59504;SDS011;45321;53.200;5.814;2023-12-04T08:57:24;14.40;;;10.77;;
59504;SDS011;45321;53.200;5.814;2023-12-04T08:59:50;15.43;;;10.70;;
59504;SDS011;45321;53.200;5.814;2023-12-04T09:02:16;15.85;;;11.38;;
59504;SDS011;45321;53.200;5.814;2023-12-04T09:04:41;16.95;;;12.45;;
59504;SDS011;45321;53.200;5.814;2023-12-04T09:07:07;14.68;;;10.82;;
59504;SDS011;45321;53.200;5.814;2023-12-04T09:09:33;14.68;;;10.43;;
59504;SDS011;45321;53.200;5.814;2023-12-04T09:11:59;15.98;;;10.55;;
59504;SDS011;45321;53.200;5.814;2023-12-04T09:14:25;15.00;;;10.80;;
59504;SDS011;45321;53.200;5.814;2023-12-04T09:16:53;14.30;;;10.07;;
59504;SDS011;45321;53.200;5.814;2023-12-04T09:19:18;13.15;;;10.00;;
59504;SDS011;45321;53.200;5.814;2023-12-04T09:21:44;15.85;;;10.73;;
59504;SDS011;45321;53.200;5.814;2023-12-04T09:24:10;14.98;;;10.07;;
59504;SDS011;45321;53.200;5.814;2023-12-04T09:26:35;13.65;;;9.93;;
59504;SDS011;45321;53.200;5.814;2023-12-04T09:29:01;14.57;;;10.68;;
59504;SDS011;45321;53.200;5.814;2023-12-04T09:31:27;13.60;;;9.85;;
59504;SDS011;45321;53.200;5.814;2023-12-04T09:33:53;13.48;;;8.63;;
59504;SDS011;45321;53.200;5.814;2023-12-04T09:36:19;13.63;;;9.48;;
59504;SDS011;45321;53.200;5.814;2023-12-04T09:38:44;12.27;;;8.80;;
59504;SDS011;45321;53.200;5.814;2023-12-04T09:41:10;11.70;;;8.60;;
59504;SDS011;45321;53.200;5.814;2023-12-04T09:43:37;15.25;;;8.80;;
59504;SDS011;45321;53.200;5.814;2023-12-04T09:46:04;13.77;;;9.00;;
59504;SDS011;45321;53.200;5.814;2023-12-04T09:48:30;11.82;;;8.20;;
59504;SDS011;45321;53.200;5.814;2023-12-04T09:50:57;11.77;;;8.50;;
59504;SDS011;45321;53.200;5.814;2023-12-04T09:53:22;12.50;;;8.23;;
59504;SDS011;45321;53.200;5.814;2023-12-04T09:55:51;12.35;;;8.88;;
59504;SDS011;45321;53.200;5.814;2023-12-04T09:58:21;11.05;;;8.23;;
59504;SDS011;45321;53.200;5.814;2023-12-04T10:00:50;13.07;;;8.20;;
59504;SDS011;45321;53.200;5.814;2023-12-04T10:03:19;11.13;;;8.10;;
59504;SDS011;45321;53.200;5.814;2023-12-04T10:05:45;10.60;;;8.23;;
59504;SDS011;45321;53.200;5.814;2023-12-04T10:08:11;12.23;;;8.23;;
59504;SDS011;45321;53.200;5.814;2023-12-04T10:10:36;11.52;;;8.52;;
59504;SDS011;45321;53.200;5.814;2023-12-04T10:13:02;11.40;;;8.18;;
59504;SDS011;45321;53.200;5.814;2023-12-04T10:15:28;12.02;;;7.75;;
59504;SDS011;45321;53.200;5.814;2023-12-04T10:17:54;10.45;;;7.70;;
59504;SDS011;45321;53.200;5.814;2023-12-04T10:20:19;10.52;;;7.65;;
59504;SDS011;45321;53.200;5.814;2023-12-04T10:22:56;10.07;;;7.32;;
59504;SDS011;45321;53.200;5.814;2023-12-04T10:25:23;9.57;;;7.22;;
59504;SDS011;45321;53.200;5.814;2023-12-04T10:27:50;10.40;;;7.45;;
59504;SDS011;45321;53.200;5.814;2023-12-04T10:30:27;10.38;;;7.50;;
59504;SDS011;45321;53.200;5.814;2023-12-04T10:33:06;9.25;;;6.78;;
59504;SDS011;45321;53.200;5.814;2023-12-04T10:35:33;10.07;;;7.68;;
59504;SDS011;45321;53.200;5.814;2023-12-04T10:38:03;10.48;;;7.82;;
59504;SDS011;45321;53.200;5.814;2023-12-04T10:40:32;10.52;;;7.05;;
59504;SDS011;45321;53.200;5.814;2023-12-04T10:43:11;11.02;;;7.65;;
59504;SDS011;45321;53.200;5.814;2023-12-04T10:45:38;12.15;;;8.82;;
59504;SDS011;45321;53.200;5.814;2023-12-04T10:48:05;10.38;;;7.30;;
59504;SDS011;45321;53.200;5.814;2023-12-04T10:50:34;9.70;;;7.10;;
59504;SDS011;45321;53.200;5.814;2023-12-04T10:53:08;10.70;;;7.35;;
59504;SDS011;45321;53.200;5.814;2023-12-04T10:55:35;9.98;;;7.18;;
59504;SDS011;45321;53.200;5.814;2023-12-04T10:58:02;9.43;;;6.90;;
59504;SDS011;45321;53.200;5.814;2023-12-04T11:00:33;10.10;;;6.88;;
59504;SDS011;45321;53.200;5.814;2023-12-04T11:03:10;9.90;;;7.28;;
59504;SDS011;45321;53.200;5.814;2023-12-04T11:05:40;10.45;;;7.55;;
59504;SDS011;45321;53.200;5.814;2023-12-04T11:08:07;12.95;;;7.72;;
59504;SDS011;45321;53.200;5.814;2023-12-04T11:10:46;9.32;;;7.32;;
59504;SDS011;45321;53.200;5.814;2023-12-04T11:13:35;10.95;;;7.43;;
59504;SDS011;45321;53.200;5.814;2023-12-04T11:16:23;10.13;;;7.45;;
59504;SDS011;45321;53.200;5.814;2023-12-04T11:21:48;8.88;;;6.90;;
59504;SDS011;45321;53.200;5.814;2023-12-04T11:24:16;9.85;;;7.32;;
59504;SDS011;45321;53.200;5.814;2023-12-04T11:26:43;10.13;;;7.28;;
59504;SDS011;45321;53.200;5.814;2023-12-04T11:29:10;10.77;;;7.60;;
59504;SDS011;45321;53.200;5.814;2023-12-04T11:31:37;10.88;;;7.85;;
59504;SDS011;45321;53.200;5.814;2023-12-04T11:34:03;9.32;;;7.57;;
59504;SDS011;45321;53.200;5.814;2023-12-04T11:36:29;13.40;;;9.82;;
59504;SDS011;45321;53.200;5.814;2023-12-04T11:38:55;9.45;;;7.53;;
59504;SDS011;45321;53.200;5.814;2023-12-04T11:41:24;9.52;;;7.10;;
59504;SDS011;45321;53.200;5.814;2023-12-04T11:43:51;8.73;;;7.07;;
59504;SDS011;45321;53.200;5.814;2023-12-04T11:46:20;12.23;;;8.32;;
59504;SDS011;45321;53.200;5.814;2023-12-04T11:48:50;9.65;;;7.85;;
59504;SDS011;45321;53.200;5.814;2023-12-04T11:54:04;9.85;;;7.60;;
59504;SDS011;45321;53.200;5.814;2023-12-04T11:56:33;11.48;;;8.05;;
59504;SDS011;45321;53.200;5.814;2023-12-04T11:59:03;9.65;;;7.07;;
59504;SDS011;45321;53.200;5.814;2023-12-04T12:01:33;11.05;;;8.13;;
59504;SDS011;45321;53.200;5.814;2023-12-04T12:03:59;10.82;;;8.38;;
59504;SDS011;45321;53.200;5.814;2023-12-04T12:06:26;10.48;;;8.13;;
59504;SDS011;45321;53.200;5.814;2023-12-04T12:08:52;11.52;;;7.97;;
59504;SDS011;45321;53.200;5.814;2023-12-04T12:11:19;10.77;;;7.90;;
59504;SDS011;45321;53.200;5.814;2023-12-04T12:13:45;9.85;;;7.50;;
59504;SDS011;45321;53.200;5.814;2023-12-04T12:16:11;10.57;;;8.15;;
59504;SDS011;45321;53.200;5.814;2023-12-04T12:18:36;12.02;;;8.52;;
59504;SDS011;45321;53.200;5.814;2023-12-04T12:21:03;9.95;;;7.72;;
59504;SDS011;45321;53.200;5.814;2023-12-04T12:23:30;11.27;;;8.10;;
59504;SDS011;45321;53.200;5.814;2023-12-04T12:25:55;14.48;;;8.55;;
59504;SDS011;45321;53.200;5.814;2023-12-04T12:28:21;12.90;;;9.63;;
59504;SDS011;45321;53.200;5.814;2023-12-04T12:30:47;13.50;;;9.57;;
59504;SDS011;45321;53.200;5.814;2023-12-04T12:33:13;12.65;;;8.70;;
59504;SDS011;45321;53.200;5.814;2023-12-04T12:35:40;13.50;;;8.00;;
59504;SDS011;45321;53.200;5.814;2023-12-04T12:38:06;11.70;;;8.82;;
59504;SDS011;45321;53.200;5.814;2023-12-04T12:40:32;12.07;;;8.48;;
59504;SDS011;45321;53.200;5.814;2023-12-04T12:43:08;15.00;;;9.60;;
59504;SDS011;45321;53.200;5.814;2023-12-04T12:45:43;12.68;;;9.02;;
59504;SDS011;45321;53.200;5.814;2023-12-04T12:48:13;12.68;;;9.02;;
59504;SDS011;45321;53.200;5.814;2023-12-04T12:50:39;12.30;;;8.65;;
59504;SDS011;45321;53.200;5.814;2023-12-04T12:53:10;12.50;;;8.98;;
59504;SDS011;45321;53.200;5.814;2023-12-04T12:55:43;12.20;;;8.57;;
59504;SDS011;45321;53.200;5.814;2023-12-04T12:58:12;19.17;;;11.18;;
59504;SDS011;45321;53.200;5.814;2023-12-04T13:00:39;11.75;;;8.73;;
59504;SDS011;45321;53.200;5.814;2023-12-04T13:03:17;13.65;;;9.02;;
59504;SDS011;45321;53.200;5.814;2023-12-04T13:05:44;11.40;;;9.07;;
59504;SDS011;45321;53.200;5.814;2023-12-04T13:08:10;11.70;;;8.77;;
59504;SDS011;45321;53.200;5.814;2023-12-04T13:10:40;10.05;;;7.80;;
59504;SDS011;45321;53.200;5.814;2023-12-04T13:13:10;10.95;;;8.43;;
59504;SDS011;45321;53.200;5.814;2023-12-04T13:15:36;14.20;;;9.25;;
59504;SDS011;45321;53.200;5.814;2023-12-04T13:18:05;11.15;;;8.48;;
59504;SDS011;45321;53.200;5.814;2023-12-04T13:20:31;11.07;;;8.45;;
59504;SDS011;45321;53.200;5.814;2023-12-04T13:22:56;10.70;;;8.32;;
59504;SDS011;45321;53.200;5.814;2023-12-04T13:25:22;12.23;;;8.57;;
59504;SDS011;45321;53.200;5.814;2023-12-04T13:27:48;11.93;;;9.10;;
59504;SDS011;45321;53.200;5.814;2023-12-04T13:30:14;11.63;;;8.52;;
59504;SDS011;45321;53.200;5.814;2023-12-04T13:32:40;11.77;;;8.82;;
59504;SDS011;45321;53.200;5.814;2023-12-04T13:35:06;10.60;;;8.05;;
59504;SDS011;45321;53.200;5.814;2023-12-04T13:37:36;11.40;;;8.63;;
59504;SDS011;45321;53.200;5.814;2023-12-04T13:40:03;11.05;;;8.43;;
59504;SDS011;45321;53.200;5.814;2023-12-04T13:42:32;11.55;;;8.10;;
59504;SDS011;45321;53.200;5.814;2023-12-04T13:45:16;11.45;;;8.63;;
59504;SDS011;45321;53.200;5.814;2023-12-04T13:47:42;9.50;;;7.70;;
59504;SDS011;45321;53.200;5.814;2023-12-04T13:50:09;11.50;;;7.97;;
59504;SDS011;45321;53.200;5.814;2023-12-04T13:52:35;12.10;;;7.97;;
59504;SDS011;45321;53.200;5.814;2023-12-04T13:55:01;10.43;;;7.63;;
59504;SDS011;45321;53.200;5.814;2023-12-04T13:57:36;12.02;;;8.35;;
59504;SDS011;45321;53.200;5.814;2023-12-04T14:00:09;10.40;;;7.32;;
59504;SDS011;45321;53.200;5.814;2023-12-04T14:02:36;12.05;;;8.55;;
59504;SDS011;45321;53.200;5.814;2023-12-04T14:05:04;12.10;;;8.52;;
59504;SDS011;45321;53.200;5.814;2023-12-04T14:07:31;9.75;;;7.50;;
59504;SDS011;45321;53.200;5.814;2023-12-04T14:09:57;11.20;;;8.00;;
59504;SDS011;45321;53.200;5.814;2023-12-04T14:12:22;9.27;;;7.57;;
59504;SDS011;45321;53.200;5.814;2023-12-04T14:14:48;11.65;;;8.43;;
59504;SDS011;45321;53.200;5.814;2023-12-04T14:17:15;11.32;;;7.97;;
59504;SDS011;45321;53.200;5.814;2023-12-04T14:19:41;9.68;;;7.18;;
59504;SDS011;45321;53.200;5.814;2023-12-04T14:22:07;11.15;;;8.38;;
59504;SDS011;45321;53.200;5.814;2023-12-04T14:24:32;9.60;;;7.40;;
59504;SDS011;45321;53.200;5.814;2023-12-04T14:27:00;11.50;;;8.30;;
59504;SDS011;45321;53.200;5.814;2023-12-04T14:29:26;9.95;;;7.20;;